Time;durP1;ratioP1;P1;durP2;ratioP2;P2;SDS_P1;SDS_P2;PMS_P1;PMS_P2;Temp;Humidity;BMP_temperature;BMP_pressure;BME280_temperature;BME280_humidity;BME280_pressure;Samples;Min_cycle;Max_cycle;Signal;HPM_P1;HPM_P2
2024/02/26 00:01:08;;;;;;;;;;;;;;;17.58;43.42;98009.66;10162076;28;1902;-70
2024/02/26 00:06:04;;;;;;;;;;;;;;;17.59;43.35;98006.06;10161402;28;821;-70
2024/02/26 00:11:00;;;;;;;;;;;;;;;17.59;43.57;98013.97;10161842;28;922;-70
2024/02/26 00:15:55;;;;;;;;;;;;;;;17.58;43.58;98009.66;10161711;28;775;-71
2024/02/26 00:20:51;;;;;;;;;;;;;;;17.57;43.48;98001.84;10162041;28;1902;-70
2024/02/26 00:25:47;;;;;;;;;;;;;;;17.57;43.30;98000.06;10161371;28;980;-70
2024/02/26 00:30:43;;;;;;;;;;;;;;;17.56;43.40;98008.91;10161067;28;1144;-70
2024/02/26 00:35:39;;;;;;;;;;;;;;;17.56;43.41;98003.66;10160811;28;834;-70
2024/02/26 00:40:35;;;;;;;;;;;;;;;17.55;43.36;97995.84;10161059;28;806;-70
2024/02/26 00:45:32;;;;;;;;;;;;;;;17.53;43.52;97993.34;10160805;28;1906;-70
2024/02/26 00:50:27;;;;;;;;;;;;;;;17.52;43.68;97981.94;10160664;28;1006;-70
2024/02/26 00:55:23;;;;;;;;;;;;;;;17.52;43.37;97991.63;10160453;28;817;-70
2024/02/26 01:00:19;;;;;;;;;;;;;;;17.53;43.52;98003.88;10160253;28;874;-70
2024/02/26 01:05:16;;;;;;;;;;;;;;;17.50;43.58;98002.28;10160042;28;1890;-71
2024/02/26 01:10:12;;;;;;;;;;;;;;;17.49;43.62;98005.03;10160160;28;771;-70
2024/02/26 01:15:08;;;;;;;;;;;;;;;17.48;43.59;97991.00;10159886;28;912;-70
2024/02/26 01:20:04;;;;;;;;;;;;;;;17.48;43.39;97992.81;10160351;28;844;-70
2024/02/26 01:25:00;;;;;;;;;;;;;;;17.48;43.56;97995.44;10159525;28;1958;-70
2024/02/26 01:29:55;;;;;;;;;;;;;;;17.46;43.54;97992.06;10160078;28;1231;-70
2024/02/26 01:34:51;;;;;;;;;;;;;;;17.45;43.61;97991.22;10159852;28;846;-70
2024/02/26 01:39:47;;;;;;;;;;;;;;;17.44;43.62;97991.31;10159706;28;908;-70
2024/02/26 01:44:43;;;;;;;;;;;;;;;17.43;43.38;98000.19;10158871;28;1910;-70
2024/02/26 01:49:39;;;;;;;;;;;;;;;17.42;43.53;97998.50;10158874;28;867;-71
2024/02/26 01:54:35;;;;;;;;;;;;;;;17.41;43.67;98004.72;10158120;28;818;-70
2024/02/26 01:59:30;;;;;;;;;;;;;;;17.40;43.42;98003.88;10159167;28;834;-70
2024/02/26 02:04:26;;;;;;;;;;;;;;;17.40;43.46;98009.16;10159001;28;1898;-70
2024/02/26 02:09:22;;;;;;;;;;;;;;;17.38;43.63;98005.78;10158914;28;770;-70
2024/02/26 02:14:18;;;;;;;;;;;;;;;17.39;43.63;98006.59;10158792;28;911;-70
2024/02/26 02:19:14;;;;;;;;;;;;;;;17.37;43.58;97998.81;10158680;28;785;-69
2024/02/26 02:24:10;;;;;;;;;;;;;;;17.37;43.52;98003.22;10157336;28;1898;-70
2024/02/26 02:29:06;;;;;;;;;;;;;;;17.36;43.65;97999.75;10157762;28;1158;-70
2024/02/26 02:34:02;;;;;;;;;;;;;;;17.35;43.45;98003.34;10157850;28;850;-70
2024/02/26 02:38:58;;;;;;;;;;;;;;;17.34;43.45;98014.81;10157557;28;921;-70
2024/02/26 02:43:54;;;;;;;;;;;;;;;17.34;43.68;98024.50;10157980;28;1965;-70
2024/02/26 02:48:50;;;;;;;;;;;;;;;17.33;43.58;98025.47;10157929;28;861;-70
2024/02/26 02:53:45;;;;;;;;;;;;;;;17.32;43.44;98029.91;10157812;28;842;-71
2024/02/26 02:58:41;;;;;;;;;;;;;;;17.31;43.49;98030.84;10163120;28;787;-70
2024/02/26 03:03:37;;;;;;;;;;;;;;;17.29;43.42;98030.97;10163246;28;1956;-71
2024/02/26 03:08:36;;;;;;;;;;;;;;;17.29;43.62;98033.59;10163763;28;842;-70
2024/02/26 03:13:32;;;;;;;;;;;;;;;17.29;43.58;98038.84;10164172;28;890;-71
2024/02/26 03:18:28;;;;;;;;;;;;;;;17.28;43.38;98038.94;10162966;28;814;-70
2024/02/26 03:23:24;;;;;;;;;;;;;;;17.27;43.69;98040.75;10163311;28;1965;-70
2024/02/26 03:28:20;;;;;;;;;;;;;;;17.26;43.42;98036.41;10163551;28;1496;-70
2024/02/26 03:33:15;;;;;;;;;;;;;;;17.26;43.63;98033.78;10164058;28;861;-70
2024/02/26 03:38:11;;;;;;;;;;;;;;;17.25;43.63;98040.00;10163479;28;914;-70
2024/02/26 03:43:07;;;;;;;;;;;;;;;17.25;43.42;98053.16;10162654;28;1915;-70
2024/02/26 03:48:03;;;;;;;;;;;;;;;17.24;43.51;98038.31;10161973;28;747;-70
2024/02/26 03:52:59;;;;;;;;;;;;;;;17.22;43.50;98032.31;10163002;28;874;-70
2024/02/26 03:57:55;;;;;;;;;;;;;;;17.22;43.44;98019.16;10162183;28;980;-70
2024/02/26 04:02:51;;;;;;;;;;;;;;;17.21;43.48;98017.47;10162063;28;1891;-70
2024/02/26 04:07:47;;;;;;;;;;;;;;;17.21;43.51;98019.25;10161800;28;818;-70
2024/02/26 04:12:43;;;;;;;;;;;;;;;17.20;43.52;98010.50;10161909;28;818;-70
2024/02/26 04:17:39;;;;;;;;;;;;;;;17.20;43.61;98013.13;10162426;28;779;-70
2024/02/26 04:22:35;;;;;;;;;;;;;;;17.19;43.65;98013.25;10161422;28;1898;-70
2024/02/26 04:27:31;;;;;;;;;;;;;;;17.18;43.58;98015.03;10161931;28;847;-70
2024/02/26 04:32:27;;;;;;;;;;;;;;;17.18;43.54;98030.81;10162088;28;1160;-71
2024/02/26 04:37:23;;;;;;;;;;;;;;;17.18;43.54;98036.09;10161606;28;860;-70
2024/02/26 04:42:19;;;;;;;;;;;;;;;17.19;43.56;98031.69;10161405;28;2037;-70
2024/02/26 04:47:15;;;;;;;;;;;;;;;17.18;43.59;98025.56;10160782;28;771;-71
2024/02/26 04:52:11;;;;;;;;;;;;;;;17.20;43.55;98039.47;10160722;28;826;-71
2024/02/26 04:57:07;;;;;;;;;;;;;;;17.21;43.34;98046.44;10161032;28;863;-78
2024/02/26 05:02:03;;;;;;;;;;;;;;;17.22;43.53;98061.28;10160451;28;1978;-71
2024/02/26 05:06:59;;;;;;;;;;;;;;;17.23;43.71;98065.59;10160162;28;847;-71
2024/02/26 05:11:54;;;;;;;;;;;;;;;17.26;43.57;98080.34;10160573;28;943;-71
2024/02/26 05:16:50;;;;;;;;;;;;;;;17.27;43.62;98084.66;10159297;28;982;-71
2024/02/26 05:21:49;;;;;;;;;;;;;;;17.28;43.63;98099.50;10159825;28;1949;-71
2024/02/26 05:26:44;;;;;;;;;;;;;;;17.30;43.68;98108.16;10159520;28;898;-71
2024/02/26 05:31:40;;;;;;;;;;;;;;;17.33;43.65;98099.22;10160469;28;1306;-71
2024/02/26 05:36:36;;;;;;;;;;;;;;;17.35;43.68;98105.22;10159296;28;855;-71
2024/02/26 05:41:32;;;;;;;;;;;;;;;17.36;43.68;98104.25;10159073;28;1998;-70
2024/02/26 05:46:28;;;;;;;;;;;;;;;17.36;43.64;98113.00;10159284;28;866;-73
2024/02/26 05:51:24;;;;;;;;;;;;;;;17.37;43.57;98109.44;10158267;28;1319;-73
2024/02/26 05:56:20;;;;;;;;;;;;;;;17.39;43.86;98101.41;10159289;28;813;-71
2024/02/26 06:01:17;;;;;;;;;;;;;;;17.40;43.63;98114.50;10158457;28;1949;-71
2024/02/26 06:06:14;;;;;;;;;;;;;;;17.41;43.82;98110.91;10158413;28;861;-71
2024/02/26 06:11:10;;;;;;;;;;;;;;;17.42;43.92;98111.75;10158852;28;859;-70
2024/02/26 06:16:07;;;;;;;;;;;;;;;17.43;43.83;98114.28;10158813;28;852;-74
2024/02/26 06:21:03;;;;;;;;;;;;;;;17.44;43.89;98117.75;10158333;28;1952;-71
2024/02/26 06:25:59;;;;;;;;;;;;;;;17.44;43.81;98131.75;10158538;28;838;-70
2024/02/26 06:30:55;;;;;;;;;;;;;;;17.43;43.79;98135.34;10158729;28;1282;-70
2024/02/26 06:35:51;;;;;;;;;;;;;;;17.44;43.79;98142.28;10164798;28;815;-71
2024/02/26 06:40:46;;;;;;;;;;;;;;;17.43;43.96;98138.00;10164611;28;849;-78
2024/02/26 06:45:42;;;;;;;;;;;;;;;17.43;43.81;98150.31;10164455;28;1918;-71
2024/02/26 06:50:38;;;;;;;;;;;;;;;17.41;43.68;98149.56;10163764;28;1038;-71
2024/02/26 06:55:34;;;;;;;;;;;;;;;17.39;43.74;98152.28;10164281;28;774;-70
2024/02/26 07:00:30;;;;;;;;;;;;;;;17.38;43.82;98152.41;10164034;28;810;-70
2024/02/26 07:05:26;;;;;;;;;;;;;;;17.37;43.85;98159.47;10163908;28;1957;-71
2024/02/26 07:10:22;;;;;;;;;;;;;;;17.35;43.91;98155.25;10163753;28;837;-70
2024/02/26 07:15:18;;;;;;;;;;;;;;;17.34;43.73;98161.44;10164443;28;863;-71
2024/02/26 07:20:14;;;;;;;;;;;;;;;17.34;43.77;98164.94;10164052;28;846;-70
2024/02/26 07:25:13;;;;;;;;;;;;;;;17.34;43.65;98170.19;10163807;28;1894;-71
2024/02/26 07:30:09;;;;;;;;;;;;;;;17.35;43.87;98181.59;10163676;28;1106;-72
2024/02/26 07:35:05;;;;;;;;;;;;;;;17.36;43.84;98188.53;10162927;28;980;-71
2024/02/26 07:40:01;;;;;;;;;;;;;;;17.37;43.85;98182.31;10162761;28;763;-68
2024/02/26 07:44:56;;;;;;;;;;;;;;;17.37;43.97;98196.34;10162924;28;1968;-70
2024/02/26 07:49:52;;;;;;;;;;;;;;;17.38;43.86;98195.41;10163217;28;826;-71
2024/02/26 07:54:48;;;;;;;;;;;;;;;17.39;43.63;98201.50;10162444;28;832;-69
2024/02/26 07:59:44;;;;;;;;;;;;;;;17.39;43.93;98201.50;10162267;28;883;-71
2024/02/26 08:04:40;;;;;;;;;;;;;;;17.41;43.91;98205.72;10162037;28;1910;-70
2024/02/26 08:09:36;;;;;;;;;;;;;;;17.40;43.81;98211.94;10163717;28;882;-71
2024/02/26 08:14:32;;;;;;;;;;;;;;;17.41;43.66;98215.41;10161286;28;921;-71
2024/02/26 08:19:28;;;;;;;;;;;;;;;17.41;43.87;98216.25;10161613;28;868;-71
2024/02/26 08:24:24;;;;;;;;;;;;;;;17.42;43.80;98217.97;10162240;28;1906;-71
2024/02/26 08:29:20;;;;;;;;;;;;;;;17.42;43.82;98223.22;10161365;28;1164;-71
2024/02/26 08:34:16;;;;;;;;;;;;;;;17.41;43.83;98228.59;10161785;28;865;-71
2024/02/26 08:39:13;;;;;;;;;;;;;;;17.40;43.82;98230.38;10160979;28;837;-71
2024/02/26 08:44:09;;;;;;;;;;;;;;;17.39;43.95;98233.09;10160825;28;1974;-71
2024/02/26 08:49:05;;;;;;;;;;;;;;;17.37;43.84;98233.22;10160810;28;806;-71
2024/02/26 08:54:01;;;;;;;;;;;;;;;17.37;43.71;98232.34;10160980;28;840;-71
2024/02/26 08:58:59;;;;;;;;;;;;;;;17.37;43.75;98235.84;10161073;28;932;-71
2024/02/26 09:03:56;;;;;;;;;;;;;;;17.37;43.83;98235.00;10160131;28;1902;-71
2024/02/26 09:08:51;;;;;;;;;;;;;;;17.36;43.83;98233.31;10160717;28;843;-71
2024/02/26 09:13:47;;;;;;;;;;;;;;;17.37;43.71;98232.34;10160034;28;964;-71
2024/02/26 09:18:43;;;;;;;;;;;;;;;17.37;43.69;98235.00;10160414;28;861;-70
2024/02/26 09:23:40;;;;;;;;;;;;;;;17.37;43.85;98238.50;10159562;28;1968;-71
2024/02/26 09:28:37;;;;;;;;;;;;;;;17.38;43.69;98248.06;10160081;28;1196;-71
2024/02/26 09:33:33;;;;;;;;;;;;;;;17.39;43.96;98239.22;10159616;28;723;-71
2024/02/26 09:38:29;;;;;;;;;;;;;;;17.39;43.76;98255.00;10159056;28;870;-71
2024/02/26 09:43:25;;;;;;;;;;;;;;;17.40;43.83;98251.44;10159565;28;1976;-71
2024/02/26 09:48:21;;;;;;;;;;;;;;;17.41;43.89;98254.94;10159505;28;856;-71
2024/02/26 09:53:17;;;;;;;;;;;;;;;17.42;44.01;98264.50;10159387;28;778;-71
2024/02/26 09:58:18;;;;;;;;;;;;;;;17.44;44.07;98283.69;10158715;28;830;-71
2024/02/26 10:03:15;;;;;;;;;;;;;;;17.43;43.89;98303.09;10159676;28;1902;-71
2024/02/26 10:08:11;;;;;;;;;;;;;;;17.45;44.07;98298.56;10158318;28;989;-72
2024/02/26 10:13:09;;;;;;;;;;;;;;;17.44;43.95;98296.88;10158349;28;814;-71
2024/02/26 10:18:05;;;;;;;;;;;;;;;17.46;44.06;98311.63;10158104;28;815;-71
2024/02/26 10:23:01;;;;;;;;;;;;;;;17.47;44.00;98312.47;10158561;28;1902;-71
2024/02/26 10:27:57;;;;;;;;;;;;;;;17.48;43.98;98314.19;10157974;28;761;-75
2024/02/26 10:32:53;;;;;;;;;;;;;;;17.49;43.93;98318.50;10158537;28;1174;-71
2024/02/26 10:37:49;;;;;;;;;;;;;;;17.50;44.18;98321.03;10157216;28;894;-71
2024/02/26 10:42:45;;;;;;;;;;;;;;;17.51;44.11;98322.72;10158644;28;1974;-71
2024/02/26 10:47:44;;;;;;;;;;;;;;;17.52;44.06;98326.19;10157488;28;782;-71
2024/02/26 10:52:40;;;;;;;;;;;;;;;17.52;44.10;98328.81;10157423;28;859;-71
2024/02/26 10:57:38;;;;;;;;;;;;;;;17.53;44.08;98330.53;10156598;28;967;-70
2024/02/26 11:02:36;;;;;;;;;;;;;;;17.54;44.02;98345.38;10157152;28;1894;-71
2024/02/26 11:07:32;;;;;;;;;;;;;;;17.55;44.17;98344.41;10156413;28;774;-76
2024/02/26 11:12:28;;;;;;;;;;;;;;;17.57;44.19;98349.59;10156873;28;883;-72
2024/02/26 11:17:25;;;;;;;;;;;;;;;17.58;44.21;98343.38;10175139;28;1025;-70
2024/02/26 11:22:26;;;;;;;;;;;;;;;17.58;44.09;98340.75;10202895;28;1898;-70
2024/02/26 11:27:22;;;;;;;;;;;;;;;17.58;44.05;98346.88;10202726;28;1280;-70
2024/02/26 11:32:18;;;;;;;;;;;;;;;17.58;44.04;98338.97;10202446;28;1252;-71
2024/02/26 11:37:13;;;;;;;;;;;;;;;17.59;44.18;98347.72;10202636;28;913;-70
2024/02/26 11:42:11;;;;;;;;;;;;;;;17.60;44.14;98359.94;10202412;28;1906;-71
2024/02/26 11:47:06;;;;;;;;;;;;;;;17.59;44.32;98351.19;10202259;28;926;-75
2024/02/26 11:52:03;;;;;;;;;;;;;;;17.60;44.19;98352.03;10202127;28;898;-70
2024/02/26 11:56:59;;;;;;;;;;;;;;;17.60;44.22;98358.16;10201370;28;854;-71
2024/02/26 12:01:57;;;;;;;;;;;;;;;17.61;44.31;98380.94;10201127;28;1959;-71
2024/02/26 12:06:53;;;;;;;;;;;;;;;17.62;44.28;98385.25;10201711;28;798;-71
2024/02/26 12:11:49;;;;;;;;;;;;;;;17.63;44.23;98389.59;10202064;28;814;-71
2024/02/26 12:16:45;;;;;;;;;;;;;;;17.63;44.19;98399.25;10201305;28;961;-70
2024/02/26 12:21:40;;;;;;;;;;;;;;;17.63;44.11;98402.78;10201117;28;1894;-71
2024/02/26 12:26:36;;;;;;;;;;;;;;;17.64;44.31;98401.81;10201716;28;807;-76
2024/02/26 12:31:32;;;;;;;;;;;;;;;17.65;44.24;98402.66;10200119;28;1235;-71
2024/02/26 12:36:28;;;;;;;;;;;;;;;17.65;44.15;98403.50;10200865;28;949;-71
2024/02/26 12:41:24;;;;;;;;;;;;;;;17.65;44.15;98392.94;10200705;28;1950;-71
2024/02/26 12:46:20;;;;;;;;;;;;;;;17.67;44.34;98396.34;10200410;28;917;-70
2024/02/26 12:51:16;;;;;;;;;;;;;;;17.67;44.17;98398.13;10201011;28;814;-71
2024/02/26 12:56:15;;;;;;;;;;;;;;;17.67;44.27;98398.97;10199932;28;933;-71
2024/02/26 13:01:10;;;;;;;;;;;;;;;17.68;44.41;98407.72;10200051;28;779;-71
2024/02/26 13:06:06;;;;;;;;;;;;;;;17.68;44.30;98413.84;10200388;28;1894;-72
2024/02/26 13:11:02;;;;;;;;;;;;;;;17.68;44.33;98408.59;10200537;28;833;-69
2024/02/26 13:15:58;;;;;;;;;;;;;;;17.68;44.31;98416.50;10199387;28;1187;-69
2024/02/26 13:20:54;;;;;;;;;;;;;;;17.69;44.32;98422.59;10199331;28;909;-69
2024/02/26 13:25:50;;;;;;;;;;;;;;;17.70;44.42;98430.41;10200044;28;1956;-69
2024/02/26 13:30:46;;;;;;;;;;;;;;;17.69;44.35;98436.63;10198392;28;1294;-69
2024/02/26 13:35:42;;;;;;;;;;;;;;;17.70;44.25;98435.66;10198900;28;1228;-70
2024/02/26 13:40:39;;;;;;;;;;;;;;;17.70;44.29;98451.47;10198497;28;943;-69
2024/02/26 13:45:35;;;;;;;;;;;;;;;17.71;44.40;98461.09;10198092;28;1914;-69
2024/02/26 13:50:31;;;;;;;;;;;;;;;17.70;44.18;98463.81;10198481;28;1191;-69
2024/02/26 13:55:28;;;;;;;;;;;;;;;17.71;44.38;98465.50;10198761;28;818;-69
2024/02/26 14:00:24;;;;;;;;;;;;;;;17.72;44.41;98475.13;10198302;28;832;-69
2024/02/26 14:05:20;;;;;;;;;;;;;;;17.72;44.65;98483.03;10198245;28;1957;-69
2024/02/26 14:10:16;;;;;;;;;;;;;;;17.73;44.28;98484.69;10197833;28;774;-69
2024/02/26 14:15:12;;;;;;;;;;;;;;;17.74;44.43;98484.63;10197643;28;802;-69
2024/02/26 14:20:09;;;;;;;;;;;;;;;17.75;44.31;98477.53;10197427;28;734;-69
2024/02/26 14:25:05;;;;;;;;;;;;;;;17.77;44.36;98485.38;10197339;28;1959;-70
2024/02/26 14:30:00;;;;;;;;;;;;;;;17.77;44.33;98493.28;10197639;28;1250;-70
2024/02/26 14:34:56;;;;;;;;;;;;;;;17.77;44.38;98504.66;10197382;28;877;-69
2024/02/26 14:39:52;;;;;;;;;;;;;;;17.77;44.28;98507.28;10197120;28;968;-69
2024/02/26 14:44:48;;;;;;;;;;;;;;;17.75;44.30;98507.38;10196966;28;1914;-70
2024/02/26 14:49:47;;;;;;;;;;;;;;;17.77;44.30;98511.72;10196476;28;849;-69
2024/02/26 14:54:43;;;;;;;;;;;;;;;17.75;44.25;98515.28;10201973;28;988;-70
2024/02/26 14:59:39;;;;;;;;;;;;;;;17.79;44.22;98523.91;10204447;28;769;-70
2024/02/26 15:04:35;;;;;;;;;;;;;;;17.79;44.37;98525.63;10203602;28;1898;-70
2024/02/26 15:09:31;;;;;;;;;;;;;;;17.80;44.28;98537.91;10203704;28;928;-70
2024/02/26 15:14:27;;;;;;;;;;;;;;;17.79;44.35;98539.72;10203336;28;935;-69
2024/02/26 15:19:23;;;;;;;;;;;;;;;17.80;44.22;98559.00;10203363;28;786;-70
2024/02/26 15:24:19;;;;;;;;;;;;;;;17.79;44.37;98560.78;10203808;28;1953;-70
2024/02/26 15:29:14;;;;;;;;;;;;;;;17.78;44.38;98566.13;10203253;28;1053;-70
2024/02/26 15:34:10;;;;;;;;;;;;;;;17.79;44.34;98573.06;10202663;28;961;-70
2024/02/26 15:39:07;;;;;;;;;;;;;;;17.78;44.29;98584.56;10202611;28;869;-70
2024/02/26 15:44:03;;;;;;;;;;;;;;;17.77;44.30;98594.28;10202440;28;1977;-70
2024/02/26 15:48:59;;;;;;;;;;;;;;;17.78;44.23;98600.38;10202208;28;876;-70
2024/02/26 15:53:55;;;;;;;;;;;;;;;17.77;44.35;98607.44;10202113;28;798;-70
2024/02/26 15:58:50;;;;;;;;;;;;;;;17.77;44.31;98606.59;10202601;28;766;-69
2024/02/26 16:03:46;;;;;;;;;;;;;;;17.77;44.32;98617.16;10201526;28;1886;-70
2024/02/26 16:08:42;;;;;;;;;;;;;;;17.76;44.13;98632.09;10202271;28;887;-69
2024/02/26 16:13:38;;;;;;;;;;;;;;;17.75;44.40;98639.16;10201021;28;809;-70
2024/02/26 16:18:34;;;;;;;;;;;;;;;17.77;44.29;98660.16;10201447;28;779;-69
2024/02/26 16:23:31;;;;;;;;;;;;;;;17.75;44.43;98665.50;10202695;28;1906;-70
2024/02/26 16:28:27;;;;;;;;;;;;;;;17.77;44.39;98675.13;10201111;28;1124;-69
2024/02/26 16:33:23;;;;;;;;;;;;;;;17.77;44.21;98688.31;10201740;28;786;-70
2024/02/26 16:38:19;;;;;;;;;;;;;;;17.75;44.40;98698.94;10200839;28;762;-70
2024/02/26 16:43:15;;;;;;;;;;;;;;;17.75;44.37;98710.31;10200559;28;1953;-70
2024/02/26 16:48:11;;;;;;;;;;;;;;;17.74;44.41;98716.53;10200485;28;1059;-70
2024/02/26 16:53:07;;;;;;;;;;;;;;;17.75;44.44;98725.28;10199797;28;826;-70
2024/02/26 16:58:03;;;;;;;;;;;;;;;17.76;44.46;98721.69;10200084;28;980;-70
2024/02/26 17:03:00;;;;;;;;;;;;;;;17.76;44.47;98742.78;10199879;28;1918;-70
2024/02/26 17:07:56;;;;;;;;;;;;;;;17.75;44.50;98747.22;10200620;28;875;-70
2024/02/26 17:12:52;;;;;;;;;;;;;;;17.75;44.54;98763.03;10199725;28;747;-70
2024/02/26 17:17:48;;;;;;;;;;;;;;;17.77;44.42;98772.66;10199431;28;897;-70
2024/02/26 17:22:43;;;;;;;;;;;;;;;17.76;44.50;98790.22;10198824;28;1890;-69
2024/02/26 17:27:39;;;;;;;;;;;;;;;17.77;44.46;98805.13;10199150;28;919;-70
2024/02/26 17:32:35;;;;;;;;;;;;;;;17.78;44.29;98816.50;10199233;28;1422;-70
2024/02/26 17:37:31;;;;;;;;;;;;;;;17.78;44.60;98821.78;10198289;28;1144;-75
2024/02/26 17:42:27;;;;;;;;;;;;;;;17.77;44.42;98820.09;10198722;28;2055;-70
2024/02/26 17:47:23;;;;;;;;;;;;;;;17.79;44.55;98836.66;10198653;28;873;-70
2024/02/26 17:52:19;;;;;;;;;;;;;;;17.80;44.50;98854.22;10199068;28;783;-71
2024/02/26 17:57:14;;;;;;;;;;;;;;;17.80;44.43;98848.94;10198358;28;885;-70
2024/02/26 18:02:10;;;;;;;;;;;;;;;17.80;44.54;98849.78;10198411;28;1961;-70
2024/02/26 18:07:08;;;;;;;;;;;;;;;17.80;44.54;98859.47;10198463;28;845;-70
2024/02/26 18:12:03;;;;;;;;;;;;;;;17.81;44.43;98876.97;10198032;28;794;-70
2024/02/26 18:16:59;;;;;;;;;;;;;;;17.82;44.60;98873.44;10197835;28;784;-70
2024/02/26 18:21:55;;;;;;;;;;;;;;;17.82;44.42;98883.97;10198235;28;1963;-70
2024/02/26 18:26:52;;;;;;;;;;;;;;;17.83;44.40;98888.31;10199085;28;755;-70
2024/02/26 18:31:48;;;;;;;;;;;;;;;17.82;44.28;98900.63;10204888;28;1262;-76
2024/02/26 18:36:44;;;;;;;;;;;;;;;17.82;44.50;98911.19;10203932;28;949;-73
2024/02/26 18:41:39;;;;;;;;;;;;;;;17.84;44.53;98913.72;10204383;28;1977;-73
2024/02/26 18:46:35;;;;;;;;;;;;;;;17.83;44.56;98915.50;10204882;28;968;-74
2024/02/26 18:51:31;;;;;;;;;;;;;;;17.83;44.56;98930.47;10204863;28;873;-73
2024/02/26 18:56:27;;;;;;;;;;;;;;;17.85;44.55;98940.00;10204010;28;960;-74
2024/02/26 19:01:23;;;;;;;;;;;;;;;17.86;44.55;98946.13;10203817;28;810;-73
2024/02/26 19:06:19;;;;;;;;;;;;;;;17.86;44.43;98956.66;10203494;28;1949;-74
2024/02/26 19:11:16;;;;;;;;;;;;;;;17.86;44.51;98959.28;10203455;28;859;-74
2024/02/26 19:16:12;;;;;;;;;;;;;;;17.88;44.58;98978.53;10203871;28;932;-74
2024/02/26 19:21:08;;;;;;;;;;;;;;;17.86;44.45;98983.88;10203736;28;890;-76
2024/02/26 19:26:04;;;;;;;;;;;;;;;17.86;44.37;98983.88;10203536;28;1961;-74
2024/02/26 19:31:00;;;;;;;;;;;;;;;17.88;44.51;98989.06;10201982;28;1415;-72
2024/02/26 19:35:56;;;;;;;;;;;;;;;17.88;44.32;98994.34;10202737;28;798;-74
2024/02/26 19:40:52;;;;;;;;;;;;;;;17.88;44.43;98999.63;10202060;28;915;-74
2024/02/26 19:45:48;;;;;;;;;;;;;;;17.89;44.56;99009.22;10202356;28;1910;-74
2024/02/26 19:50:45;;;;;;;;;;;;;;;17.88;44.31;99018.91;10202822;28;822;-74
2024/02/26 19:55:41;;;;;;;;;;;;;;;17.90;44.41;99029.38;10202423;28;789;-74
2024/02/26 20:00:37;;;;;;;;;;;;;;;17.90;44.18;99039.94;10201997;28;809;-74
2024/02/26 20:05:33;;;;;;;;;;;;;;;17.91;44.43;99057.44;10201881;28;1910;-74
2024/02/26 20:10:28;;;;;;;;;;;;;;;17.92;44.51;99069.69;10202291;28;778;-74
2024/02/26 20:15:24;;;;;;;;;;;;;;;17.92;44.24;99073.19;10201498;28;801;-73
2024/02/26 20:20:26;;;;;;;;;;;;;;;17.91;44.51;99078.53;10201966;28;814;-74
2024/02/26 20:25:22;;;;;;;;;;;;;;;17.91;44.52;99079.38;10201371;28;1890;-73
2024/02/26 20:30:17;;;;;;;;;;;;;;;17.93;44.34;99089.84;10201672;28;1151;-73
2024/02/26 20:35:13;;;;;;;;;;;;;;;17.92;44.29;99091.66;10200903;28;841;-74
2024/02/26 20:40:10;;;;;;;;;;;;;;;17.91;44.38;99100.47;10201355;28;912;-74
2024/02/26 20:45:06;;;;;;;;;;;;;;;17.91;44.58;99108.38;10200497;28;1906;-74
2024/02/26 20:50:05;;;;;;;;;;;;;;;17.90;44.53;99108.47;10199549;28;771;-74
2024/02/26 20:55:01;;;;;;;;;;;;;;;17.89;44.35;99117.31;10200908;28;817;-74
2024/02/26 20:59:57;;;;;;;;;;;;;;;17.88;44.42;99118.25;10200711;28;932;-74
2024/02/26 21:04:55;;;;;;;;;;;;;;;17.88;44.40;99128.78;10199992;28;1944;-75
2024/02/26 21:09:52;;;;;;;;;;;;;;;17.86;44.47;99135.94;10199734;28;786;-74
2024/02/26 21:14:48;;;;;;;;;;;;;;;17.85;44.40;99140.34;10199731;28;768;-74
2024/02/26 21:19:44;;;;;;;;;;;;;;;17.85;44.68;99144.78;10199442;28;956;-74
2024/02/26 21:24:40;;;;;;;;;;;;;;;17.83;44.36;99150.13;10199318;28;1887;-74
2024/02/26 21:29:36;;;;;;;;;;;;;;;17.83;44.38;99159.81;10199428;28;1247;-74
2024/02/26 21:34:32;;;;;;;;;;;;;;;17.83;44.33;99165.09;10199481;28;838;-73
2024/02/26 21:39:28;;;;;;;;;;;;;;;17.82;44.32;99173.94;10199086;28;948;-72
2024/02/26 21:44:24;;;;;;;;;;;;;;;17.80;44.38;99187.19;10198999;28;1965;-73
2024/02/26 21:49:21;;;;;;;;;;;;;;;17.79;44.48;99196.06;10199684;28;817;-73
2024/02/26 21:54:17;;;;;;;;;;;;;;;17.78;44.46;99198.72;10199317;28;848;-74
2024/02/26 21:59:12;;;;;;;;;;;;;;;17.77;44.57;99208.41;10198565;28;869;-72
2024/02/26 22:04:09;;;;;;;;;;;;;;;17.74;44.47;99229.66;10198783;28;1890;-73
2024/02/26 22:09:07;;;;;;;;;;;;;;;17.74;44.35;99232.31;10198298;28;897;-74
2024/02/26 22:14:03;;;;;;;;;;;;;;;17.71;44.52;99238.59;10198846;28;797;-72
2024/02/26 22:19:05;;;;;;;;;;;;;;;17.70;44.56;99249.19;10198276;28;919;-73
2024/02/26 22:24:01;;;;;;;;;;;;;;;17.69;44.41;99252.78;10197263;28;1946;-74
2024/02/26 22:28:57;;;;;;;;;;;;;;;17.67;44.43;99254.63;10197450;28;1447;-74
2024/02/26 22:33:53;;;;;;;;;;;;;;;17.66;44.45;99274.03;10198252;28;885;-73
2024/02/26 22:38:49;;;;;;;;;;;;;;;17.63;44.40;99272.38;10197592;28;797;-74
2024/02/26 22:43:45;;;;;;;;;;;;;;;17.62;44.46;99283.84;10197346;28;1910;-72
2024/02/26 22:48:41;;;;;;;;;;;;;;;17.62;44.37;99285.63;10197351;28;829;-74
2024/02/26 22:53:37;;;;;;;;;;;;;;;17.60;44.48;99290.13;10196697;28;834;-74
2024/02/26 22:58:33;;;;;;;;;;;;;;;17.58;44.45;99295.47;10198445;28;942;-73
2024/02/26 23:03:29;;;;;;;;;;;;;;;17.55;44.41;99297.41;10196894;28;1949;-73
2024/02/26 23:08:25;;;;;;;;;;;;;;;17.55;44.36;99308.78;10197388;28;777;-73
2024/02/26 23:13:21;;;;;;;;;;;;;;;17.55;44.44;99310.56;10198804;28;806;-74
2024/02/26 23:18:16;;;;;;;;;;;;;;;17.51;44.54;99321.25;10204180;28;929;-74
2024/02/26 23:23:12;;;;;;;;;;;;;;;17.51;44.60;99333.59;10203967;28;1972;-74
2024/02/26 23:28:10;;;;;;;;;;;;;;;17.49;44.30;99344.19;10203378;28;977;-74
2024/02/26 23:33:07;;;;;;;;;;;;;;;17.49;44.33;99340.72;10203364;28;1258;-73
2024/02/26 23:38:03;;;;;;;;;;;;;;;17.48;44.34;99345.13;10202945;28;956;-74
2024/02/26 23:42:59;;;;;;;;;;;;;;;17.47;44.39;99350.47;10202794;28;1976;-74
2024/02/26 23:47:55;;;;;;;;;;;;;;;17.47;44.46;99355.72;10202715;28;841;-74
2024/02/26 23:52:51;;;;;;;;;;;;;;;17.46;44.56;99357.53;10202508;28;968;-74
2024/02/26 23:57:46;;;;;;;;;;;;;;;17.46;44.40;99364.59;10202391;28;933;-72
